createdAt,value
2019-01-03T00:00:01.425Z,97.33
2019-01-03T00:01:02.078Z,97.46
2019-01-03T00:02:03.843Z,97.70
2019-01-03T00:03:04.728Z,97.75
2019-01-03T00:04:05.743Z,97.45
2019-01-03T00:05:05.710Z,97.44
2019-01-03T00:06:07.585Z,97.37
2019-01-03T00:07:06.726Z,97.65
2019-01-03T00:08:07.282Z,97.87
2019-01-03T00:09:11.293Z,98.13
2019-01-03T00:10:08.604Z,98.10
2019-01-03T00:11:10.217Z,97.79
2019-01-03T00:12:10.849Z,97.74
2019-01-03T00:13:11.370Z,97.76
2019-01-03T00:14:11.897Z,97.75
2019-01-03T00:15:12.527Z,97.58
2019-01-03T00:16:13.105Z,97.64
2019-01-03T00:17:13.614Z,97.56
2019-01-03T00:18:14.058Z,97.39
2019-01-03T00:19:14.610Z,97.30
2019-01-03T00:20:15.451Z,97.20
2019-01-03T00:21:16.229Z,97.15
2019-01-03T00:22:16.879Z,96.97
2019-01-03T00:23:17.631Z,96.78
2019-01-03T00:24:18.292Z,97.35
2019-01-03T00:25:18.911Z,97.51
2019-01-03T00:26:19.577Z,97.39
2019-01-03T00:27:20.233Z,97.37
2019-01-03T00:28:20.918Z,97.32
2019-01-03T00:29:21.511Z,97.10
2019-01-03T00:30:22.417Z,96.99
2019-01-03T00:31:24.855Z,97.31
2019-01-03T00:32:23.481Z,97.34
2019-01-03T00:33:24.395Z,97.79
2019-01-03T00:34:24.261Z,97.57
2019-01-03T00:35:24.296Z,97.46
2019-01-03T00:36:25.430Z,97.42
2019-01-03T00:37:26.163Z,97.65
2019-01-03T00:38:26.856Z,97.88
2019-01-03T00:39:27.495Z,97.90
2019-01-03T00:40:28.149Z,98.09
2019-01-03T00:41:28.743Z,98.48
2019-01-03T00:42:29.358Z,98.63
2019-01-03T00:43:30.031Z,98.58
2019-01-03T00:44:29.896Z,98.54
2019-01-03T00:45:31.535Z,98.73
2019-01-03T00:46:32.314Z,98.78
2019-01-03T00:47:41.522Z,98.67
2019-01-03T00:48:42.149Z,98.69
2019-01-03T00:49:43.976Z,98.80
2019-01-03T00:50:44.473Z,98.87
2019-01-03T00:51:45.122Z,99.01
2019-01-03T00:52:45.230Z,98.76
2019-01-03T00:53:45.758Z,98.81
2019-01-03T00:54:46.419Z,98.70
2019-01-03T00:55:46.964Z,98.56
2019-01-03T00:56:47.825Z,98.61
2019-01-03T00:57:48.491Z,98.62
2019-01-03T00:58:49.461Z,98.99
2019-01-03T00:59:49.171Z,98.95
2019-01-03T01:00:50.880Z,98.61
2019-01-03T01:01:51.821Z,98.50
2019-01-03T01:02:52.556Z,98.54
2019-01-03T01:03:53.042Z,98.85
2019-01-03T01:04:53.532Z,98.95
2019-01-03T01:05:54.547Z,98.89
2019-01-03T01:06:54.061Z,98.79
2019-01-03T01:07:54.638Z,98.79
2019-01-03T01:08:55.330Z,99.04
2019-01-03T01:09:56.154Z,99.02
2019-01-03T01:10:56.312Z,99.00
2019-01-03T01:11:56.825Z,99.10
2019-01-03T01:12:57.438Z,98.97
2019-01-03T01:13:57.948Z,98.89
2019-01-03T01:14:58.668Z,98.74
2019-01-03T01:15:59.420Z,98.90
2019-01-03T01:17:00.302Z,98.83
2019-01-03T01:18:00.867Z,98.60
2019-01-03T01:19:01.832Z,98.74
2019-01-03T01:20:02.758Z,98.96
2019-01-03T01:21:03.315Z,99.03
2019-01-03T01:22:03.812Z,99.05
2019-01-03T01:23:04.387Z,99.36
2019-01-03T01:24:05.379Z,99.51
2019-01-03T01:25:05.395Z,99.34
2019-01-03T01:26:06.137Z,99.13
2019-01-03T01:27:07.734Z,98.93
2019-01-03T01:28:07.279Z,99.05
2019-01-03T01:29:07.851Z,99.07
2019-01-03T01:30:08.644Z,99.04
2019-01-03T01:31:09.251Z,99.16
2019-01-03T01:32:09.924Z,99.40
2019-01-03T01:33:10.457Z,99.56
2019-01-03T01:33:32.698Z,99.59
2019-01-03T01:34:32.470Z,99.60
2019-01-03T01:35:32.956Z,99.60
2019-01-03T01:36:33.711Z,99.45
2019-01-03T01:37:35.470Z,99.37
2019-01-03T01:38:36.069Z,99.38
2019-01-03T01:39:36.281Z,99.37
2019-01-03T01:40:37.181Z,99.33
2019-01-03T01:41:37.737Z,99.27
2019-01-03T01:42:38.391Z,99.24
2019-01-03T01:43:38.358Z,99.05
2019-01-03T01:44:39.208Z,98.87
2019-01-03T01:45:39.831Z,98.82
2019-01-03T01:46:39.424Z,98.88
2019-01-03T01:47:41.004Z,98.69
2019-01-03T01:48:44.055Z,98.54
2019-01-03T01:49:40.783Z,98.44
2019-01-03T01:50:42.282Z,98.16
2019-01-03T01:51:42.814Z,97.95
2019-01-03T01:52:42.478Z,98.14
2019-01-03T01:53:46.378Z,98.49
2019-01-03T01:54:43.921Z,98.80
2019-01-03T01:55:47.948Z,98.73
2019-01-03T01:56:45.066Z,98.77
2019-01-03T01:57:46.596Z,98.69
2019-01-03T01:58:47.282Z,98.77
2019-01-03T01:59:47.780Z,98.58
2019-01-03T02:00:48.391Z,98.39
2019-01-03T02:01:48.943Z,98.26
2019-01-03T02:02:49.548Z,98.00
2019-01-03T02:03:50.080Z,98.02
2019-01-03T02:04:50.741Z,98.09
2019-01-03T02:05:51.340Z,98.11
2019-01-03T02:06:51.989Z,98.10
2019-01-03T02:07:52.573Z,98.03
2019-01-03T02:08:53.218Z,97.95
2019-01-03T02:09:53.723Z,97.92
2019-01-03T02:10:54.331Z,97.85
2019-01-03T02:11:54.967Z,97.66
2019-01-03T02:12:55.567Z,97.55
2019-01-03T02:13:55.785Z,97.46
2019-01-03T02:14:56.569Z,97.32
2019-01-03T02:15:56.641Z,97.45
2019-01-03T02:16:57.197Z,97.42
2019-01-03T02:17:57.729Z,97.30
2019-01-03T02:18:58.393Z,97.10
2019-01-03T02:19:58.004Z,97.07
2019-01-03T02:20:59.763Z,97.12
2019-01-03T02:22:00.244Z,97.09
2019-01-03T02:23:00.698Z,97.11
2019-01-03T02:24:01.309Z,96.86
2019-01-03T02:24:11.241Z,97.12
2019-01-03T02:25:12.650Z,97.13
2019-01-03T02:26:13.152Z,97.11
2019-01-03T02:27:13.640Z,96.95
2019-01-03T02:28:14.572Z,96.74
2019-01-03T02:29:15.121Z,96.72
2019-01-03T02:30:15.781Z,96.73
2019-01-03T02:31:15.284Z,96.40
2019-01-03T02:32:17.025Z,96.28
2019-01-03T02:33:16.671Z,96.35
2019-01-03T02:34:18.310Z,96.11
2019-01-03T02:35:18.993Z,96.01
2019-01-03T02:36:19.529Z,96.17
2019-01-03T02:37:19.947Z,96.09
2019-01-03T02:38:20.493Z,96.32
2019-01-03T02:39:21.075Z,96.32
2019-01-03T02:40:21.694Z,96.17
2019-01-03T02:41:22.233Z,96.15
2019-01-03T02:42:22.765Z,96.28
2019-01-03T02:43:23.307Z,96.39
2019-01-03T02:44:24.050Z,96.17
2019-01-03T02:45:24.520Z,96.17
2019-01-03T02:46:25.011Z,96.09
2019-01-03T02:47:25.584Z,96.08
2019-01-03T02:48:26.128Z,96.21
2019-01-03T02:49:26.793Z,96.32
2019-01-03T02:50:27.291Z,96.28
2019-01-03T02:51:27.951Z,96.20
2019-01-03T02:52:28.557Z,96.10
2019-01-03T02:53:29.249Z,96.29
2019-01-03T02:54:30.227Z,96.20
2019-01-03T02:55:31.096Z,96.15
2019-01-03T02:56:31.672Z,96.05
2019-01-03T02:57:32.444Z,96.03
2019-01-03T02:58:33.063Z,96.41
2019-01-03T02:59:33.619Z,96.56
2019-01-03T03:00:34.007Z,96.66
2019-01-03T03:01:34.928Z,96.93
2019-01-03T03:02:35.599Z,96.93
2019-01-03T03:03:36.213Z,96.96
2019-01-03T03:04:36.735Z,96.96
2019-01-03T03:05:37.249Z,97.03
2019-01-03T03:06:37.998Z,97.15
2019-01-03T03:07:38.742Z,96.92
2019-01-03T03:08:39.448Z,96.88
2019-01-03T03:09:40.188Z,97.08
2019-01-03T03:09:50.304Z,97.16
2019-01-03T03:10:50.759Z,97.16
2019-01-03T03:11:51.188Z,96.84
2019-01-03T03:12:52.167Z,96.61
2019-01-03T03:13:52.724Z,96.56
2019-01-03T03:14:53.356Z,96.94
2019-01-03T03:15:53.915Z,96.86
2019-01-03T03:16:54.660Z,96.59
2019-01-03T03:17:55.558Z,96.61
2019-01-03T03:18:56.115Z,96.44
2019-01-03T03:19:56.906Z,96.54
2019-01-03T03:20:57.439Z,96.46
2019-01-03T03:21:58.217Z,96.32
2019-01-03T03:22:59.054Z,96.29
2019-01-03T03:23:59.779Z,96.37
2019-01-03T03:25:00.555Z,96.17
2019-01-03T03:26:00.049Z,96.17
2019-01-03T03:27:01.757Z,95.92
2019-01-03T03:28:02.289Z,96.11
2019-01-03T03:29:03.050Z,95.79
2019-01-03T03:30:03.578Z,95.86
2019-01-03T03:31:04.200Z,95.79
2019-01-03T03:32:04.694Z,95.86
2019-01-03T03:33:05.235Z,95.72
2019-01-03T03:34:05.721Z,95.93
2019-01-03T03:35:05.232Z,96.22
2019-01-03T03:36:07.154Z,96.34
2019-01-03T03:37:07.789Z,96.09
2019-01-03T03:38:08.327Z,96.01
2019-01-03T03:39:07.956Z,96.05
2019-01-03T03:40:09.591Z,96.29
2019-01-03T03:41:11.488Z,96.17
2019-01-03T03:42:09.815Z,96.20
2019-01-03T03:43:11.226Z,96.39
2019-01-03T03:44:11.690Z,96.45
2019-01-03T03:45:12.371Z,96.63
2019-01-03T03:46:12.825Z,96.28
2019-01-03T03:47:12.513Z,96.53
2019-01-03T03:48:13.990Z,96.58
2019-01-03T03:49:14.564Z,96.48
2019-01-03T03:50:15.051Z,96.69
2019-01-03T03:51:15.527Z,96.81
2019-01-03T03:52:16.040Z,97.07
2019-01-03T03:53:16.563Z,97.05
2019-01-03T03:54:17.105Z,96.79
2019-01-03T03:55:17.755Z,96.84
2019-01-03T03:56:18.217Z,96.90
2019-01-03T03:57:18.922Z,96.91
2019-01-03T03:58:18.403Z,96.99
2019-01-03T03:58:27.300Z,97.12
2019-01-03T03:59:28.133Z,97.11
2019-01-03T04:00:28.631Z,97.02
2019-01-03T04:01:29.151Z,97.22
2019-01-03T04:02:29.945Z,97.16
2019-01-03T04:03:30.623Z,97.12
2019-01-03T04:04:31.144Z,96.95
2019-01-03T04:05:31.630Z,96.78
2019-01-03T04:06:32.310Z,96.66
2019-01-03T04:07:32.851Z,96.61
2019-01-03T04:08:33.236Z,96.46
2019-01-03T04:09:33.886Z,96.60
2019-01-03T04:10:34.593Z,96.61
2019-01-03T04:11:35.039Z,96.46
2019-01-03T04:12:35.525Z,96.38
2019-01-03T04:13:36.158Z,96.23
2019-01-03T04:14:36.816Z,96.37
2019-01-03T04:15:37.672Z,96.38
2019-01-03T04:16:38.188Z,96.33
2019-01-03T04:17:38.619Z,96.32
2019-01-03T04:18:39.020Z,96.01
2019-01-03T04:19:39.597Z,96.12
2019-01-03T04:20:40.257Z,96.02
2019-01-03T04:21:40.754Z,95.79
2019-01-03T04:22:41.276Z,95.45
2019-01-03T04:23:41.731Z,95.64
2019-01-03T04:24:42.400Z,95.82
2019-01-03T04:25:42.832Z,95.16
2019-01-03T04:26:43.319Z,95.06
2019-01-03T04:27:43.728Z,95.45
2019-01-03T04:28:44.168Z,95.45
2019-01-03T04:29:44.690Z,95.45
2019-01-03T04:30:45.233Z,95.12
2019-01-03T04:31:45.707Z,95.57
2019-01-03T04:32:46.245Z,95.42
2019-01-03T04:33:46.716Z,95.58
2019-01-03T04:34:47.225Z,95.66
2019-01-03T04:35:47.888Z,95.52
2019-01-03T04:36:48.340Z,95.26
2019-01-03T04:37:48.859Z,95.16
2019-01-03T04:38:49.415Z,95.32
2019-01-03T04:39:49.958Z,95.20
2019-01-03T04:40:50.780Z,95.04
2019-01-03T04:41:51.620Z,95.30
2019-01-03T04:42:00.536Z,95.35
2019-01-03T04:43:01.438Z,95.37
2019-01-03T04:44:01.963Z,95.19
2019-01-03T04:45:02.555Z,95.46
2019-01-03T04:46:02.970Z,95.22
2019-01-03T04:47:03.424Z,95.35
2019-01-03T04:48:04.023Z,95.51
2019-01-03T04:49:04.438Z,95.36
2019-01-03T04:50:04.768Z,95.37
2019-01-03T04:51:05.261Z,95.34
2019-01-03T04:52:05.682Z,95.32
2019-01-03T04:53:06.194Z,95.64
2019-01-03T04:54:06.742Z,95.88
2019-01-03T04:55:07.377Z,96.27
2019-01-03T04:56:07.832Z,96.39
2019-01-03T04:57:08.518Z,96.23
2019-01-03T04:58:09.388Z,96.05
2019-01-03T04:59:10.132Z,96.15
2019-01-03T05:00:10.687Z,96.24
2019-01-03T05:01:11.118Z,96.33
2019-01-03T05:02:11.692Z,96.58
2019-01-03T05:03:12.240Z,96.62
2019-01-03T05:04:13.748Z,96.78
2019-01-03T05:05:14.675Z,96.78
2019-01-03T05:06:14.335Z,96.48
2019-01-03T05:07:14.931Z,96.53
2019-01-03T05:08:15.419Z,96.48
2019-01-03T05:09:15.926Z,96.53
2019-01-03T05:10:16.467Z,96.61
2019-01-03T05:11:17.289Z,96.81
2019-01-03T05:12:17.837Z,96.47
2019-01-03T05:13:18.448Z,96.35
2019-01-03T05:14:17.904Z,95.84
2019-01-03T05:15:19.416Z,95.89
2019-01-03T05:16:19.979Z,96.08
2019-01-03T05:17:20.447Z,96.01
2019-01-03T05:18:20.950Z,95.76
2019-01-03T05:19:21.453Z,95.58
2019-01-03T05:20:22.101Z,95.71
2019-01-03T05:21:23.052Z,95.59
2019-01-03T05:22:23.744Z,95.83
2019-01-03T05:23:24.716Z,95.82
2019-01-03T05:24:25.570Z,95.79
2019-01-03T05:25:27.122Z,95.97
2019-01-03T05:26:26.819Z,95.94
2019-01-03T05:27:27.449Z,95.91
2019-01-03T05:27:36.349Z,95.99
2019-01-03T05:28:37.091Z,96.01
2019-01-03T05:29:37.528Z,95.99
2019-01-03T05:30:38.096Z,95.97
2019-01-03T05:31:38.532Z,96.05
2019-01-03T05:32:39.079Z,96.10
2019-01-03T05:33:39.580Z,96.31
2019-01-03T05:34:39.990Z,96.43
2019-01-03T05:35:40.647Z,96.31
2019-01-03T05:36:41.556Z,96.21
2019-01-03T05:37:42.484Z,96.29
2019-01-03T05:38:43.005Z,96.17
2019-01-03T05:39:43.628Z,96.16
2019-01-03T05:40:44.291Z,96.48
2019-01-03T05:41:44.104Z,96.38
2019-01-03T05:42:44.897Z,96.09
2019-01-03T05:43:46.382Z,96.12
2019-01-03T05:44:47.038Z,96.60
2019-01-03T05:45:47.719Z,96.55
2019-01-03T05:46:47.727Z,96.86
2019-01-03T05:47:48.315Z,96.75
2019-01-03T05:48:48.868Z,96.42
2019-01-03T05:49:49.434Z,96.23
2019-01-03T05:50:50.304Z,96.44
2019-01-03T05:51:50.901Z,96.34
2019-01-03T05:52:51.437Z,96.60
2019-01-03T05:53:51.916Z,96.91
2019-01-03T05:54:52.411Z,97.05
2019-01-03T05:55:53.052Z,97.12
2019-01-03T05:56:53.626Z,97.07
2019-01-03T05:57:54.117Z,97.04
2019-01-03T05:58:54.606Z,96.45
2019-01-03T05:59:55.091Z,96.23
2019-01-03T06:00:55.776Z,96.23
2019-01-03T06:01:56.357Z,96.34
2019-01-03T06:02:55.877Z,96.72
2019-01-03T06:03:57.378Z,96.23
2019-01-03T06:04:57.990Z,96.43
2019-01-03T06:05:58.556Z,96.46
2019-01-03T06:06:59.111Z,96.57
2019-01-03T06:07:59.655Z,96.60
2019-01-03T06:09:00.208Z,96.49
2019-01-03T06:10:00.830Z,96.38
2019-01-03T06:11:01.486Z,96.56
2019-01-03T06:12:02.117Z,96.61
2019-01-03T06:13:02.594Z,96.64
2019-01-03T06:14:03.072Z,97.17
2019-01-03T06:15:03.820Z,97.03
2019-01-03T06:15:17.942Z,96.92
2019-01-03T06:16:19.325Z,96.89
2019-01-03T06:17:19.812Z,96.94
2019-01-03T06:18:20.096Z,97.02
2019-01-03T06:19:20.731Z,97.08
2019-01-03T06:20:21.288Z,97.03
2019-01-03T06:21:21.979Z,97.02
2019-01-03T06:22:22.441Z,97.06
2019-01-03T06:23:23.250Z,96.88
2019-01-03T06:24:24.058Z,96.78
2019-01-03T06:25:24.666Z,96.91
2019-01-03T06:26:25.155Z,97.00
2019-01-03T06:27:25.616Z,96.76
2019-01-03T06:28:26.195Z,96.64
2019-01-03T06:29:26.794Z,96.17
2019-01-03T06:30:26.190Z,96.03
2019-01-03T06:31:27.705Z,96.45
2019-01-03T06:32:28.425Z,96.56
2019-01-03T06:33:29.278Z,96.70
2019-01-03T06:34:29.821Z,97.06
2019-01-03T06:35:30.396Z,97.23
2019-01-03T06:36:36.086Z,97.66
2019-01-03T06:37:30.616Z,97.71
2019-01-03T06:38:32.316Z,97.39
2019-01-03T06:39:32.858Z,97.26
2019-01-03T06:40:33.446Z,97.56
2019-01-03T06:41:34.171Z,97.47
2019-01-03T06:42:34.827Z,97.45
2019-01-03T06:43:35.387Z,97.79
2019-01-03T06:44:36.043Z,97.70
2019-01-03T06:45:36.580Z,97.88
2019-01-03T06:46:37.142Z,97.86
2019-01-03T06:47:37.814Z,97.99
2019-01-03T06:48:38.404Z,98.30
2019-01-03T06:49:38.982Z,98.37
2019-01-03T06:50:39.451Z,98.87
2019-01-03T06:51:40.175Z,98.65
2019-01-03T06:52:40.858Z,99.14
2019-01-03T06:53:41.347Z,99.46
2019-01-03T06:54:42.206Z,99.48
2019-01-03T06:55:42.754Z,99.73
2019-01-03T06:56:42.216Z,99.57
2019-01-03T06:57:43.770Z,99.77
2019-01-03T06:58:44.324Z,100.12
2019-01-03T06:59:44.877Z,100.18
2019-01-03T07:00:45.506Z,100.15
2019-01-03T07:01:46.255Z,100.25
2019-01-03T07:01:56.299Z,100.44
2019-01-03T07:02:56.830Z,100.45
2019-01-03T07:03:57.450Z,100.56
2019-01-03T07:04:58.013Z,100.64
2019-01-03T07:05:58.522Z,100.71
2019-01-03T07:06:59.213Z,100.66
2019-01-03T07:07:59.968Z,100.54
2019-01-03T07:09:00.049Z,100.44
2019-01-03T07:10:00.738Z,100.39
2019-01-03T07:11:01.279Z,100.24
2019-01-03T07:12:01.886Z,100.20
2019-01-03T07:13:02.385Z,100.33
2019-01-03T07:14:01.903Z,100.29
2019-01-03T07:15:03.465Z,100.15
2019-01-03T07:16:04.036Z,100.07
2019-01-03T07:17:04.036Z,100.03
2019-01-03T07:18:04.750Z,100.12
2019-01-03T07:19:05.518Z,100.02
2019-01-03T07:20:06.384Z,100.27
2019-01-03T07:21:06.869Z,100.47
2019-01-03T07:22:07.753Z,100.50
2019-01-03T07:23:08.568Z,100.69
2019-01-03T07:24:09.053Z,100.84
2019-01-03T07:25:09.646Z,100.64
2019-01-03T07:26:10.190Z,100.39
2019-01-03T07:27:10.928Z,100.02
2019-01-03T07:28:11.560Z,99.80
2019-01-03T07:29:12.238Z,99.94
2019-01-03T07:30:12.823Z,100.00
2019-01-03T07:31:13.359Z,100.01
2019-01-03T07:32:13.910Z,100.10
2019-01-03T07:33:14.578Z,100.31
2019-01-03T07:34:15.009Z,100.25
2019-01-03T07:35:15.630Z,100.13
2019-01-03T07:36:16.151Z,100.17
2019-01-03T07:37:16.874Z,100.11
2019-01-03T07:38:17.505Z,99.89
2019-01-03T07:39:18.408Z,99.63
2019-01-03T07:40:19.063Z,99.72
2019-01-03T07:41:19.639Z,99.64
2019-01-03T07:42:19.243Z,99.41
2019-01-03T07:43:20.798Z,99.43
2019-01-03T07:44:21.259Z,99.55
2019-01-03T07:45:21.938Z,99.66
2019-01-03T07:46:22.364Z,99.73
2019-01-03T07:46:31.451Z,99.75
2019-01-03T07:47:31.982Z,99.76
2019-01-03T07:48:32.495Z,99.61
2019-01-03T07:49:32.995Z,99.53
2019-01-03T07:50:33.617Z,99.87
2019-01-03T07:51:34.117Z,99.87
2019-01-03T07:52:34.706Z,99.84
2019-01-03T07:53:35.208Z,100.14
2019-01-03T07:54:35.682Z,99.69
2019-01-03T07:55:36.264Z,99.90
2019-01-03T07:56:36.749Z,100.08
2019-01-03T07:57:36.642Z,100.29
2019-01-03T07:58:38.157Z,100.42
2019-01-03T07:59:38.875Z,100.65
2019-01-03T08:00:39.516Z,100.21
2019-01-03T08:01:39.045Z,100.32
2019-01-03T08:02:40.680Z,100.93
2019-01-03T08:03:41.205Z,101.23
2019-01-03T08:04:41.691Z,101.38
2019-01-03T08:05:42.280Z,101.42
2019-01-03T08:06:43.131Z,101.52
2019-01-03T08:07:43.579Z,101.33
2019-01-03T08:08:44.038Z,101.57
2019-01-03T08:09:44.617Z,101.57
2019-01-03T08:10:45.245Z,101.62
2019-01-03T08:11:45.725Z,101.71
2019-01-03T08:12:46.298Z,101.66
2019-01-03T08:13:46.869Z,101.62
2019-01-03T08:14:47.776Z,101.65
2019-01-03T08:15:48.422Z,101.69
2019-01-03T08:16:49.335Z,101.66
2019-01-03T08:17:49.416Z,101.78
2019-01-03T08:18:49.877Z,101.88
2019-01-03T08:19:50.865Z,101.88
2019-01-03T08:20:51.479Z,101.89
2019-01-03T08:21:52.157Z,101.91
2019-01-03T08:22:52.739Z,101.86
2019-01-03T08:23:53.481Z,101.95
2019-01-03T08:24:53.983Z,101.88
2019-01-03T08:25:54.826Z,101.85
2019-01-03T08:26:55.433Z,101.80
2019-01-03T08:27:56.259Z,101.67
2019-01-03T08:28:56.734Z,101.65
2019-01-03T08:29:57.143Z,101.40
2019-01-03T08:30:57.567Z,101.43
2019-01-03T08:31:07.608Z,101.16
2019-01-03T08:32:08.509Z,101.14
2019-01-03T08:33:08.025Z,101.10
2019-01-03T08:34:09.581Z,101.24
2019-01-03T08:35:10.402Z,101.34
2019-01-03T08:36:10.906Z,101.15
2019-01-03T08:37:11.657Z,100.96
2019-01-03T08:38:12.506Z,101.06
2019-01-03T08:39:13.075Z,101.30
2019-01-03T08:40:13.962Z,101.33
2019-01-03T08:41:14.636Z,101.48
2019-01-03T08:42:15.223Z,101.34
2019-01-03T08:43:15.904Z,101.30
2019-01-03T08:44:16.248Z,101.19
2019-01-03T08:45:17.093Z,101.25
2019-01-03T08:46:17.751Z,101.00
2019-01-03T08:47:18.196Z,100.97
2019-01-03T08:48:18.769Z,100.64
2019-01-03T08:49:19.414Z,100.33
2019-01-03T08:50:19.856Z,100.11
2019-01-03T08:51:20.440Z,100.36
2019-01-03T08:52:20.945Z,100.63
2019-01-03T08:53:21.931Z,100.71
2019-01-03T08:54:22.886Z,100.46
2019-01-03T08:55:23.323Z,100.51
2019-01-03T08:56:24.010Z,100.55
2019-01-03T08:57:24.693Z,100.77
2019-01-03T08:58:24.302Z,100.83
2019-01-03T08:59:25.922Z,100.73
2019-01-03T09:00:26.374Z,100.79
2019-01-03T09:01:26.882Z,100.66
2019-01-03T09:02:26.959Z,101.22
2019-01-03T09:03:27.489Z,101.41
2019-01-03T09:04:28.454Z,101.18
2019-01-03T09:05:29.007Z,101.34
2019-01-03T09:06:29.132Z,101.16
2019-01-03T09:07:32.229Z,101.19
2019-01-03T09:08:29.419Z,101.44
2019-01-03T09:09:31.306Z,101.28
2019-01-03T09:10:32.126Z,101.30
2019-01-03T09:11:31.093Z,101.14
2019-01-03T09:12:32.822Z,100.89
2019-01-03T09:13:33.500Z,101.18
2019-01-03T09:14:34.043Z,101.61
2019-01-03T09:15:34.571Z,101.56
2019-01-03T09:16:35.296Z,101.30
2019-01-03T09:16:43.623Z,101.36
2019-01-03T09:17:44.366Z,101.35
2019-01-03T09:18:44.920Z,101.52
2019-01-03T09:19:45.764Z,101.55
2019-01-03T09:20:46.229Z,101.53
2019-01-03T09:21:48.020Z,101.46
2019-01-03T09:22:47.833Z,101.19
2019-01-03T09:23:48.549Z,101.17
2019-01-03T09:24:49.024Z,101.27
2019-01-03T09:25:49.855Z,101.23
2019-01-03T09:26:50.458Z,101.27
2019-01-03T09:27:51.172Z,101.33
2019-01-03T09:28:51.722Z,101.47
2019-01-03T09:29:52.179Z,101.37
2019-01-03T09:30:52.597Z,101.38
2019-01-03T09:31:53.192Z,101.40
2019-01-03T09:32:54.155Z,101.48
2019-01-03T09:33:54.754Z,101.53
2019-01-03T09:34:55.388Z,101.50
2019-01-03T09:35:55.847Z,101.44
2019-01-03T09:36:56.420Z,101.42
2019-01-03T09:37:56.701Z,101.35
2019-01-03T09:38:57.239Z,101.44
2019-01-03T09:39:57.890Z,101.25
2019-01-03T09:40:59.429Z,101.17
2019-01-03T09:41:58.153Z,101.09
2019-01-03T09:42:59.634Z,101.07
2019-01-03T09:44:00.174Z,100.74
2019-01-03T09:45:00.824Z,100.46
2019-01-03T09:46:01.371Z,100.05
2019-01-03T09:47:02.089Z,99.87
2019-01-03T09:48:02.915Z,100.02
2019-01-03T09:49:02.997Z,99.95
2019-01-03T09:50:03.510Z,99.93
2019-01-03T09:51:03.972Z,99.54
2019-01-03T09:52:04.774Z,99.14
2019-01-03T09:53:04.088Z,99.18
2019-01-03T09:54:05.687Z,98.88
2019-01-03T09:55:06.168Z,98.68
2019-01-03T09:56:07.082Z,99.00
2019-01-03T09:57:08.019Z,99.16
2019-01-03T09:58:08.590Z,99.27
2019-01-03T09:59:09.230Z,99.31
2019-01-03T10:00:10.042Z,99.27
2019-01-03T10:01:10.846Z,99.34
2019-01-03T10:02:11.492Z,99.45
2019-01-03T10:02:19.787Z,99.66
2019-01-03T10:03:21.276Z,99.69
2019-01-03T10:04:21.795Z,99.74
2019-01-03T10:05:22.315Z,99.73
2019-01-03T10:06:22.773Z,99.80
2019-01-03T10:07:23.293Z,99.75
2019-01-03T10:08:23.886Z,99.98
2019-01-03T10:09:24.600Z,99.90
2019-01-03T10:10:25.231Z,100.00
2019-01-03T10:11:25.719Z,100.07
2019-01-03T10:12:26.224Z,100.20
2019-01-03T10:13:26.844Z,100.25
2019-01-03T10:14:27.314Z,99.91
2019-01-03T10:15:27.797Z,100.12
2019-01-03T10:16:28.447Z,100.08
2019-01-03T10:17:29.000Z,100.55
2019-01-03T10:18:29.631Z,100.78
2019-01-03T10:19:30.020Z,100.93
2019-01-03T10:20:30.661Z,100.86
2019-01-03T10:21:31.102Z,100.75
2019-01-03T10:22:34.765Z,100.80
2019-01-03T10:23:32.330Z,100.70
2019-01-03T10:24:31.995Z,100.63
2019-01-03T10:25:33.401Z,100.51
2019-01-03T10:26:34.246Z,100.66
2019-01-03T10:27:34.832Z,100.96
2019-01-03T10:28:35.265Z,100.78
2019-01-03T10:29:35.791Z,100.75
2019-01-03T10:30:36.234Z,100.84
2019-01-03T10:31:36.725Z,100.68
2019-01-03T10:32:37.224Z,100.61
2019-01-03T10:33:37.260Z,100.67
2019-01-03T10:34:37.736Z,100.56
2019-01-03T10:35:38.248Z,100.38
2019-01-03T10:36:39.014Z,100.02
2019-01-03T10:37:39.488Z,100.01
2019-01-03T10:38:39.951Z,100.09
2019-01-03T10:39:39.460Z,100.28
2019-01-03T10:40:41.342Z,100.33
2019-01-03T10:41:42.035Z,99.74
2019-01-03T10:42:42.563Z,99.57
2019-01-03T10:43:43.122Z,99.25
2019-01-03T10:44:43.693Z,99.44
2019-01-03T10:45:44.289Z,99.40
2019-01-03T10:46:44.986Z,99.34
2019-01-03T10:47:45.564Z,99.46
2019-01-03T10:47:57.626Z,99.88
2019-01-03T10:48:58.248Z,99.87
2019-01-03T10:49:58.764Z,99.99
2019-01-03T10:50:59.347Z,99.76
2019-01-03T10:51:59.914Z,99.52
2019-01-03T10:53:00.522Z,99.74
2019-01-03T10:54:01.187Z,99.87
2019-01-03T10:55:01.737Z,99.98
2019-01-03T10:56:01.332Z,99.91
2019-01-03T10:57:02.914Z,99.50
2019-01-03T10:58:04.508Z,99.29
2019-01-03T10:59:04.130Z,98.93
2019-01-03T11:00:04.805Z,99.00
2019-01-03T11:01:05.501Z,99.08
2019-01-03T11:02:06.364Z,98.88
2019-01-03T11:03:07.082Z,98.95
2019-01-03T11:04:07.916Z,99.54
2019-01-03T11:05:08.467Z,99.82
2019-01-03T11:06:09.181Z,99.96
2019-01-03T11:07:09.722Z,99.87
2019-01-03T11:08:10.477Z,100.22
2019-01-03T11:09:11.308Z,100.04
2019-01-03T11:10:11.846Z,100.01
2019-01-03T11:11:12.390Z,99.77
2019-01-03T11:12:13.106Z,99.50
2019-01-03T11:13:13.983Z,99.46
2019-01-03T11:14:14.613Z,99.69
2019-01-03T11:15:15.283Z,99.86
2019-01-03T11:16:16.400Z,100.17
2019-01-03T11:17:15.643Z,100.13
2019-01-03T11:18:17.360Z,100.19
2019-01-03T11:19:18.159Z,100.62
2019-01-03T11:20:18.441Z,100.69
2019-01-03T11:21:19.013Z,100.54
2019-01-03T11:22:19.406Z,100.38
2019-01-03T11:23:20.053Z,100.31
2019-01-03T11:24:20.627Z,100.10
2019-01-03T11:25:21.227Z,100.01
2019-01-03T11:26:24.444Z,100.04
2019-01-03T11:27:28.070Z,100.10
2019-01-03T11:28:27.752Z,100.10
2019-01-03T11:29:23.216Z,99.87
2019-01-03T11:30:55.161Z,100.00
2019-01-03T11:32:05.772Z,100.02
2019-01-03T11:32:57.320Z,100.10
2019-01-03T11:34:07.032Z,100.02
2019-01-03T11:34:57.561Z,99.85
2019-01-03T11:35:59.571Z,99.97
2019-01-03T11:36:58.796Z,100.06
2019-01-03T11:38:00.239Z,99.86
2019-01-03T11:39:00.913Z,99.93
2019-01-03T11:40:01.614Z,99.95
2019-01-03T11:41:02.087Z,100.00
2019-01-03T11:42:02.108Z,99.93
2019-01-03T11:43:02.541Z,100.27
2019-01-03T11:44:04.501Z,100.26
2019-01-03T11:45:07.323Z,100.38
2019-01-03T11:46:03.479Z,100.51
2019-01-03T11:47:05.409Z,100.20
2019-01-03T11:48:06.587Z,100.11
2019-01-03T11:49:04.841Z,100.30
2019-01-03T11:50:06.729Z,100.43
2019-01-03T11:51:07.424Z,100.07
2019-01-03T11:52:08.240Z,100.04
2019-01-03T11:53:08.937Z,99.94
2019-01-03T11:54:09.489Z,99.84
2019-01-03T11:55:09.971Z,100.01
2019-01-03T11:56:10.400Z,99.76
2019-01-03T11:57:11.111Z,99.64
2019-01-03T11:58:11.962Z,99.67
2019-01-03T11:59:12.581Z,99.33
2019-01-03T12:00:13.171Z,98.83
2019-01-03T12:01:13.594Z,98.60
2019-01-03T12:02:14.484Z,98.57
2019-01-03T12:03:15.071Z,98.48
2019-01-03T12:04:15.587Z,98.05
2019-01-03T12:05:16.454Z,98.14
2019-01-03T12:06:17.023Z,98.33
2019-01-03T12:07:17.560Z,98.18
2019-01-03T12:08:18.046Z,98.31
2019-01-03T12:09:18.754Z,98.28
2019-01-03T12:10:19.452Z,98.25
2019-01-03T12:11:19.881Z,98.18
2019-01-03T12:12:20.662Z,97.56
2019-01-03T12:13:21.264Z,97.56
2019-01-03T12:14:21.703Z,97.78
2019-01-03T12:15:22.387Z,97.85
2019-01-03T12:16:22.953Z,97.51
2019-01-03T12:17:23.611Z,97.65
2019-01-03T12:18:24.408Z,97.64
2019-01-03T12:19:25.060Z,97.57
2019-01-03T12:20:25.628Z,97.78
2019-01-03T12:20:34.087Z,97.87
2019-01-03T12:21:33.874Z,97.88
2019-01-03T12:22:35.524Z,97.98
2019-01-03T12:23:36.018Z,98.11
2019-01-03T12:24:36.070Z,97.59
2019-01-03T12:25:36.528Z,97.17
2019-01-03T12:26:36.983Z,97.16
2019-01-03T12:27:37.556Z,97.08
2019-01-03T12:28:38.400Z,97.25
2019-01-03T12:29:38.930Z,97.36
2019-01-03T12:30:39.385Z,97.41
2019-01-03T12:31:39.948Z,97.23
2019-01-03T12:32:39.749Z,97.30
2019-01-03T12:33:41.226Z,97.66
2019-01-03T12:34:41.811Z,97.64
2019-01-03T12:35:42.499Z,97.42
2019-01-03T12:36:42.507Z,97.36
2019-01-03T12:37:43.138Z,97.61
2019-01-03T12:38:43.843Z,97.83
2019-01-03T12:39:44.442Z,97.74
2019-01-03T12:40:45.090Z,97.77
2019-01-03T12:41:45.939Z,97.69